createdAt,value
2018-01-21T00:01:58.807Z,12.40
2018-01-21T00:04:26.337Z,13.70
2018-01-21T00:06:53.860Z,12.63
2018-01-21T00:09:21.322Z,12.03
2018-01-21T00:11:48.807Z,12.63
2018-01-21T00:14:16.346Z,12.13
2018-01-21T00:16:43.867Z,13.03
2018-01-21T00:19:11.532Z,12.67
2018-01-21T00:21:38.999Z,12.43
2018-01-21T00:24:06.569Z,12.47
2018-01-21T00:26:34.058Z,13.47
2018-01-21T00:29:01.550Z,13.50
2018-01-21T00:31:29.967Z,13.50
2018-01-21T00:33:57.577Z,13.23
2018-01-21T00:36:25.036Z,12.70
2018-01-21T00:38:52.678Z,11.93
2018-01-21T00:41:20.170Z,13.50
2018-01-21T00:43:47.695Z,14.00
2018-01-21T00:46:15.295Z,12.47
2018-01-21T00:48:42.775Z,15.00
2018-01-21T00:51:11.016Z,16.23
2018-01-21T00:53:38.489Z,14.60
2018-01-21T00:56:06.027Z,13.63
2018-01-21T00:58:33.507Z,12.87
2018-01-21T01:01:01.007Z,14.00
2018-01-21T01:03:28.555Z,13.63
2018-01-21T01:05:56.020Z,15.30
2018-01-21T01:08:23.498Z,14.83
2018-01-21T01:10:50.971Z,15.17
2018-01-21T01:13:18.488Z,14.47
2018-01-21T01:15:45.940Z,14.67
2018-01-21T01:18:13.407Z,15.37
2018-01-21T01:20:40.864Z,16.00
2018-01-21T01:23:08.333Z,16.10
2018-01-21T01:25:35.853Z,16.27
2018-01-21T01:28:03.298Z,16.23
2018-01-21T01:30:30.778Z,15.83
2018-01-21T01:32:58.307Z,17.37
2018-01-21T01:35:25.930Z,18.63
2018-01-21T01:37:53.430Z,18.53
2018-01-21T01:40:20.955Z,17.73
2018-01-21T01:42:48.469Z,17.63
2018-01-21T01:45:15.919Z,17.20
2018-01-21T01:47:43.460Z,17.87
2018-01-21T01:50:10.991Z,18.53
2018-01-21T01:52:38.583Z,18.93
2018-01-21T01:55:06.079Z,19.03
2018-01-21T01:57:33.558Z,18.40
2018-01-21T02:00:01.007Z,18.40
2018-01-21T02:02:29.395Z,17.50
2018-01-21T02:04:56.904Z,18.50
2018-01-21T02:07:24.347Z,18.10
2018-01-21T02:09:51.945Z,19.63
2018-01-21T02:12:19.425Z,18.93
2018-01-21T02:14:46.890Z,18.97
2018-01-21T02:17:14.333Z,18.50
2018-01-21T02:19:42.282Z,18.00
2018-01-21T02:22:16.958Z,19.90
2018-01-21T02:24:45.090Z,20.27
2018-01-21T02:27:12.576Z,19.40
2018-01-21T02:29:40.182Z,20.43
2018-01-21T02:32:07.716Z,21.20
2018-01-21T02:34:35.327Z,19.43
2018-01-21T02:37:04.285Z,19.53
2018-01-21T02:39:31.814Z,19.30
2018-01-21T02:41:59.385Z,20.43
2018-01-21T02:44:26.887Z,19.63
2018-01-21T02:46:54.361Z,18.07
2018-01-21T02:49:21.894Z,19.20
2018-01-21T02:51:49.355Z,19.43
2018-01-21T02:54:16.817Z,21.97
2018-01-21T02:56:44.286Z,21.17
2018-01-21T02:59:11.751Z,21.73
2018-01-21T03:01:39.226Z,20.77
2018-01-21T03:04:06.674Z,20.37
2018-01-21T03:06:34.142Z,21.70
2018-01-21T03:09:01.686Z,21.53
2018-01-21T03:11:29.174Z,22.53
2018-01-21T03:13:56.636Z,20.23
2018-01-21T03:16:24.127Z,19.80
2018-01-21T03:18:51.599Z,20.17
2018-01-21T03:21:19.078Z,20.13
2018-01-21T03:23:46.538Z,20.23
2018-01-21T03:26:13.990Z,19.97
2018-01-21T03:28:42.298Z,19.23
2018-01-21T03:31:10.008Z,20.37
2018-01-21T03:33:37.486Z,20.53
2018-01-21T03:36:04.963Z,21.37
2018-01-21T03:38:32.581Z,21.90
2018-01-21T03:41:00.064Z,20.83
2018-01-21T03:43:27.573Z,21.07
2018-01-21T03:45:55.062Z,20.10
2018-01-21T03:48:23.555Z,19.40
2018-01-21T03:50:52.793Z,20.27
2018-01-21T03:53:20.256Z,20.53
2018-01-21T03:55:47.752Z,22.67
2018-01-21T03:58:15.793Z,20.53
2018-01-21T04:00:43.288Z,21.87
2018-01-21T04:03:10.745Z,22.53
2018-01-21T04:05:38.247Z,22.50
2018-01-21T04:08:05.740Z,22.27
2018-01-21T04:10:33.182Z,21.80
2018-01-21T04:13:00.666Z,21.30
2018-01-21T04:15:28.158Z,19.50
2018-01-21T04:17:55.610Z,20.13
2018-01-21T04:20:23.219Z,19.40
2018-01-21T04:22:50.679Z,18.73
2018-01-21T04:25:18.159Z,19.17
2018-01-21T04:27:45.617Z,19.17
2018-01-21T04:30:13.069Z,20.30
2018-01-21T04:32:40.508Z,18.77
2018-01-21T04:35:07.980Z,18.93
2018-01-21T04:37:35.448Z,20.13
2018-01-21T04:40:02.896Z,19.37
2018-01-21T04:42:30.424Z,19.10
2018-01-21T04:44:57.905Z,19.17
2018-01-21T04:47:25.410Z,19.03
2018-01-21T04:49:52.897Z,19.13
2018-01-21T04:52:20.359Z,19.90
2018-01-21T04:54:47.818Z,20.70
2018-01-21T04:57:15.260Z,20.20
2018-01-21T04:59:47.754Z,21.47
2018-01-21T05:02:15.234Z,21.20
2018-01-21T05:04:42.754Z,20.50
2018-01-21T05:07:10.192Z,20.33
2018-01-21T05:09:37.647Z,21.40
2018-01-21T05:12:05.144Z,21.53
2018-01-21T05:14:32.618Z,19.77
2018-01-21T05:17:00.156Z,21.67
2018-01-21T05:19:27.614Z,21.23
2018-01-21T05:21:55.099Z,22.37
2018-01-21T05:24:22.592Z,21.33
2018-01-21T05:26:50.059Z,21.63
2018-01-21T05:29:17.559Z,21.27
2018-01-21T05:31:45.068Z,20.37
2018-01-21T05:34:12.564Z,21.17
2018-01-21T05:36:40.073Z,20.50
2018-01-21T05:39:07.580Z,20.13
2018-01-21T05:41:35.056Z,21.30
2018-01-21T05:44:02.566Z,20.07
2018-01-21T05:46:30.033Z,20.90
2018-01-21T05:48:57.509Z,20.10
2018-01-21T05:51:24.999Z,22.30
2018-01-21T05:53:52.437Z,20.67
2018-01-21T05:56:19.918Z,21.07
2018-01-21T05:58:47.507Z,20.33
2018-01-21T06:01:14.961Z,20.67
2018-01-21T06:03:42.486Z,20.50
2018-01-21T06:06:10.016Z,18.70
2018-01-21T06:08:37.473Z,19.17
2018-01-21T06:11:04.923Z,18.93
2018-01-21T06:13:32.437Z,18.23
2018-01-21T06:15:59.897Z,18.00
2018-01-21T06:18:27.352Z,18.13
2018-01-21T06:20:54.828Z,17.47
2018-01-21T06:23:22.285Z,17.00
2018-01-21T06:25:49.764Z,17.57
2018-01-21T06:28:17.234Z,18.20
2018-01-21T06:30:44.807Z,18.87
2018-01-21T06:33:12.256Z,18.07
2018-01-21T06:35:39.698Z,18.57
2018-01-21T06:38:07.187Z,17.77
2018-01-21T06:40:34.739Z,18.10
2018-01-21T06:43:02.243Z,18.63
2018-01-21T06:45:29.697Z,18.27
2018-01-21T06:47:57.735Z,18.73
2018-01-21T06:50:25.289Z,18.30
2018-01-21T06:52:52.775Z,18.27
2018-01-21T06:55:20.223Z,18.73
2018-01-21T06:57:47.689Z,17.67
2018-01-21T07:00:15.225Z,18.23
2018-01-21T07:02:42.667Z,19.10
2018-01-21T07:05:10.111Z,18.60
2018-01-21T07:07:37.627Z,18.50
2018-01-21T07:10:05.131Z,18.57
2018-01-21T07:12:32.623Z,18.03
2018-01-21T07:15:00.167Z,17.73
2018-01-21T07:17:27.648Z,17.10
2018-01-21T07:19:56.044Z,18.13
2018-01-21T07:22:23.522Z,18.90
2018-01-21T07:24:50.979Z,17.90
2018-01-21T07:27:18.760Z,18.30
2018-01-21T07:29:46.638Z,17.57
2018-01-21T07:32:14.090Z,18.53
2018-01-21T07:34:41.536Z,19.00
2018-01-21T07:37:09.031Z,17.00
2018-01-21T07:39:36.560Z,17.27
2018-01-21T07:42:04.038Z,17.90
2018-01-21T07:44:31.487Z,17.87
2018-01-21T07:46:58.960Z,17.63
2018-01-21T07:49:26.781Z,19.40
2018-01-21T07:51:54.320Z,19.03
2018-01-21T07:54:21.794Z,19.60
2018-01-21T07:56:49.252Z,19.40
2018-01-21T07:59:16.712Z,18.43
2018-01-21T08:01:44.172Z,18.70
2018-01-21T08:04:11.726Z,17.33
2018-01-21T08:06:39.224Z,17.43
2018-01-21T08:09:06.971Z,17.37
2018-01-21T08:11:34.445Z,17.67
2018-01-21T08:14:01.955Z,16.90
2018-01-21T08:16:29.466Z,17.47
2018-01-21T08:18:56.957Z,16.93
2018-01-21T08:21:24.449Z,16.23
2018-01-21T08:23:52.099Z,17.27
2018-01-21T08:26:19.639Z,16.90
2018-01-21T08:28:47.124Z,17.47
2018-01-21T08:31:14.640Z,17.03
2018-01-21T08:33:47.740Z,17.43
2018-01-21T08:36:20.667Z,17.07
2018-01-21T08:38:54.676Z,17.00
2018-01-21T08:44:25.959Z,16.10
2018-01-21T08:46:53.444Z,15.67
2018-01-21T08:49:21.070Z,16.60
2018-01-21T08:51:48.581Z,17.23
2018-01-21T08:54:16.055Z,15.87
2018-01-21T08:56:43.585Z,15.80
2018-01-21T08:59:11.144Z,15.93
2018-01-21T09:01:38.652Z,15.67
2018-01-21T09:04:06.124Z,15.63
2018-01-21T09:06:33.594Z,14.93
2018-01-21T09:09:01.391Z,14.63
2018-01-21T09:11:28.903Z,14.40
2018-01-21T09:13:56.437Z,14.43
2018-01-21T09:16:23.967Z,15.80
2018-01-21T09:18:51.416Z,14.37
2018-01-21T09:21:18.963Z,14.53
2018-01-21T09:23:46.482Z,14.80
2018-01-21T09:26:14.000Z,15.03
2018-01-21T09:28:41.575Z,15.70
2018-01-21T09:31:09.038Z,16.13
2018-01-21T09:33:36.524Z,16.03
2018-01-21T09:36:04.162Z,15.70
2018-01-21T09:38:31.638Z,16.10
2018-01-21T09:40:59.177Z,16.43
2018-01-21T09:43:26.709Z,16.03
2018-01-21T09:45:54.198Z,18.10
2018-01-21T09:48:21.659Z,19.03
2018-01-21T09:50:49.153Z,18.43
2018-01-21T09:53:16.705Z,18.97
2018-01-21T09:55:44.652Z,19.10
2018-01-21T09:58:12.120Z,18.97
2018-01-21T10:00:39.690Z,18.97
2018-01-21T10:03:07.195Z,18.07
2018-01-21T10:05:34.695Z,17.90
2018-01-21T10:08:02.254Z,17.53
2018-01-21T10:10:29.792Z,16.80
2018-01-21T10:12:57.351Z,18.33
2018-01-21T10:15:25.433Z,17.67
2018-01-21T10:17:53.042Z,17.43
2018-01-21T10:20:25.546Z,16.43
2018-01-21T10:22:53.094Z,16.27
2018-01-21T10:25:20.596Z,16.90
2018-01-21T10:27:48.114Z,16.23
2018-01-21T10:30:15.751Z,16.10
2018-01-21T10:32:43.209Z,19.80
2018-01-21T10:35:10.719Z,17.17
2018-01-21T10:37:38.233Z,17.43
2018-01-21T10:40:05.938Z,18.17
2018-01-21T10:42:33.442Z,17.13
2018-01-21T10:45:01.173Z,17.27
2018-01-21T10:47:28.662Z,17.33
2018-01-21T10:49:56.255Z,17.50
2018-01-21T10:52:23.872Z,18.03
2018-01-21T10:54:51.614Z,18.27
2018-01-21T10:57:19.084Z,18.33
2018-01-21T10:59:46.726Z,18.50
2018-01-21T11:02:14.223Z,18.90
2018-01-21T11:04:41.730Z,18.83
2018-01-21T11:07:09.243Z,19.40
2018-01-21T11:09:36.789Z,21.13
2018-01-21T11:12:04.308Z,21.47
2018-01-21T11:14:31.874Z,22.53
2018-01-21T11:16:59.475Z,22.23
2018-01-21T11:19:27.025Z,22.57
2018-01-21T11:21:54.555Z,22.53
2018-01-21T11:24:22.009Z,22.37
2018-01-21T11:26:49.573Z,21.03
2018-01-21T11:29:17.130Z,22.00
2018-01-21T11:31:44.645Z,21.83
2018-01-21T11:34:12.196Z,24.03
2018-01-21T11:36:39.750Z,22.97
2018-01-21T11:39:07.297Z,23.50
2018-01-21T11:41:34.829Z,24.03
2018-01-21T11:44:02.343Z,22.43
2018-01-21T11:46:29.882Z,22.67
2018-01-21T11:48:57.363Z,22.97
2018-01-21T11:51:24.885Z,22.87
2018-01-21T11:53:52.381Z,22.33
2018-01-21T11:56:19.955Z,23.50
2018-01-21T11:58:47.438Z,21.93
2018-01-21T12:01:14.902Z,22.00
2018-01-21T12:03:42.651Z,22.37
2018-01-21T12:06:10.166Z,22.00
2018-01-21T12:08:37.631Z,21.53
2018-01-21T12:11:05.214Z,21.20
2018-01-21T12:13:32.716Z,23.10
2018-01-21T12:16:00.209Z,21.80
2018-01-21T12:18:27.718Z,21.50
2018-01-21T12:20:55.297Z,22.40
2018-01-21T12:23:22.870Z,21.10
2018-01-21T12:25:50.427Z,20.93
2018-01-21T12:28:17.940Z,22.10
2018-01-21T12:30:45.442Z,21.40
2018-01-21T12:33:12.966Z,21.40
2018-01-21T12:35:40.483Z,22.87
2018-01-21T12:38:07.947Z,23.33
2018-01-21T12:40:40.389Z,22.67
2018-01-21T12:43:07.895Z,19.50
2018-01-21T12:45:35.434Z,20.77
2018-01-21T12:48:02.931Z,20.00
2018-01-21T12:50:30.585Z,21.63
2018-01-21T12:52:58.065Z,20.87
2018-01-21T12:55:25.558Z,22.03
2018-01-21T12:57:53.122Z,22.00
2018-01-21T13:00:20.608Z,22.10
2018-01-21T13:02:48.095Z,21.93
2018-01-21T13:05:15.582Z,20.33
2018-01-21T13:07:43.090Z,20.13
2018-01-21T13:10:10.624Z,20.53
2018-01-21T13:12:38.986Z,21.20
2018-01-21T13:15:06.745Z,20.27
2018-01-21T13:17:34.272Z,19.67
2018-01-21T13:20:02.706Z,20.70
2018-01-21T13:22:30.237Z,20.70
2018-01-21T13:24:57.807Z,21.07
2018-01-21T13:27:25.489Z,21.07
2018-01-21T13:29:53.061Z,21.40
2018-01-21T13:32:20.596Z,20.43
2018-01-21T13:34:48.104Z,21.60
2018-01-21T13:37:15.646Z,20.70
2018-01-21T13:39:43.836Z,17.80
2018-01-21T13:42:16.036Z,16.80
2018-01-21T13:44:43.513Z,17.83
2018-01-21T13:47:10.994Z,17.70
2018-01-21T13:49:38.451Z,19.30
2018-01-21T13:52:08.206Z,20.30
2018-01-21T13:54:35.836Z,21.03
2018-01-21T13:57:03.389Z,19.87
2018-01-21T13:59:30.942Z,20.37
2018-01-21T14:01:58.491Z,21.27
2018-01-21T14:04:26.047Z,20.10
2018-01-21T14:06:54.204Z,21.37
2018-01-21T14:09:21.821Z,22.80
2018-01-21T14:11:49.359Z,23.43
2018-01-21T14:14:17.111Z,22.87
2018-01-21T14:16:44.644Z,22.43
2018-01-21T14:19:12.151Z,20.77
2018-01-21T14:21:39.695Z,22.10
2018-01-21T14:24:07.354Z,21.97
2018-01-21T14:26:34.863Z,24.40
2018-01-21T14:29:02.426Z,22.43
2018-01-21T14:31:29.942Z,22.83
2018-01-21T14:33:57.478Z,22.60
2018-01-21T14:36:25.019Z,22.80
2018-01-21T14:38:52.553Z,22.83
2018-01-21T14:41:20.100Z,23.40
2018-01-21T14:43:47.607Z,22.70
2018-01-21T14:46:15.117Z,22.83
2018-01-21T14:48:43.396Z,24.10
2018-01-21T14:51:12.158Z,24.07
2018-01-21T14:53:39.692Z,22.90
2018-01-21T14:56:07.461Z,23.60
2018-01-21T14:58:34.956Z,23.57
2018-01-21T15:01:02.600Z,26.50
2018-01-21T15:03:30.147Z,26.20
2018-01-21T15:05:57.645Z,25.17
2018-01-21T15:08:25.733Z,25.00
2018-01-21T15:13:35.218Z,24.27
2018-01-21T15:16:02.849Z,23.00
2018-01-21T15:18:31.317Z,24.10
2018-01-21T15:20:58.851Z,26.07
2018-01-21T15:23:26.446Z,23.93
2018-01-21T15:25:54.008Z,25.63
2018-01-21T15:28:22.401Z,25.03
2018-01-21T15:30:51.689Z,25.43
2018-01-21T15:33:20.077Z,27.27
2018-01-21T15:35:47.583Z,27.90
2018-01-21T15:38:15.092Z,25.50
2018-01-21T15:40:47.525Z,25.13
2018-01-21T15:43:15.172Z,25.10
2018-01-21T15:45:44.005Z,26.63
2018-01-21T15:48:11.469Z,27.33
2018-01-21T15:50:39.002Z,26.30
2018-01-21T15:53:07.045Z,29.47
2018-01-21T15:55:34.519Z,25.93
2018-01-21T15:58:04.940Z,25.73
2018-01-21T16:00:34.639Z,23.87
2018-01-21T16:03:02.248Z,24.33
2018-01-21T16:05:29.845Z,25.47
2018-01-21T16:07:57.352Z,25.40
2018-01-21T16:10:24.948Z,26.07
2018-01-21T16:12:52.574Z,26.13
2018-01-21T16:15:20.954Z,25.97
2018-01-21T16:17:49.323Z,27.43
2018-01-21T16:20:16.911Z,27.90
2018-01-21T16:22:44.399Z,26.97
2018-01-21T16:25:11.941Z,28.00
2018-01-21T16:27:39.445Z,27.13
2018-01-21T16:30:07.014Z,28.10
2018-01-21T16:32:35.669Z,27.63
2018-01-21T16:35:03.122Z,27.93
2018-01-21T16:37:42.288Z,27.03
2018-01-21T16:40:09.747Z,26.70
2018-01-21T16:42:37.238Z,28.93
2018-01-21T16:45:04.790Z,26.80
2018-01-21T16:47:32.307Z,26.87
2018-01-21T16:49:59.781Z,27.90
2018-01-21T16:52:27.336Z,27.23
2018-01-21T16:54:54.898Z,28.27
2018-01-21T16:57:22.530Z,27.70
2018-01-21T16:59:50.010Z,28.10
2018-01-21T17:02:17.510Z,27.97
2018-01-21T17:04:45.060Z,27.87
2018-01-21T17:07:12.736Z,30.23
2018-01-21T17:09:40.391Z,29.57
2018-01-21T17:12:07.897Z,28.83
2018-01-21T17:14:35.419Z,27.77
2018-01-21T17:17:02.895Z,29.07
2018-01-21T17:19:30.383Z,28.97
2018-01-21T17:21:57.905Z,27.87
2018-01-21T17:24:25.404Z,27.77
2018-01-21T17:26:52.945Z,30.33
2018-01-21T17:29:21.385Z,29.63
2018-01-21T17:31:48.905Z,31.73
2018-01-21T17:34:16.804Z,31.93
2018-01-21T17:36:44.352Z,31.97
2018-01-21T17:39:11.924Z,31.40
2018-01-21T17:41:39.388Z,32.20
2018-01-21T17:44:06.874Z,29.73
2018-01-21T17:46:34.423Z,29.80
2018-01-21T17:49:02.212Z,29.53
2018-01-21T17:51:29.848Z,29.17
2018-01-21T17:53:57.415Z,30.23
2018-01-21T17:56:24.932Z,28.87
2018-01-21T17:58:52.503Z,29.60
2018-01-21T18:01:20.101Z,31.13
2018-01-21T18:03:47.700Z,30.80
2018-01-21T18:06:15.214Z,32.13
2018-01-21T18:08:43.065Z,29.30
2018-01-21T18:11:10.641Z,30.33
2018-01-21T18:13:38.152Z,29.67
2018-01-21T18:16:05.668Z,29.60
2018-01-21T18:18:33.224Z,29.37
2018-01-21T18:21:00.684Z,27.83
2018-01-21T18:23:28.252Z,25.43
2018-01-21T18:25:55.737Z,23.70
2018-01-21T18:28:23.366Z,23.63
2018-01-21T18:30:50.986Z,23.17
2018-01-21T18:33:18.566Z,23.40
2018-01-21T18:35:46.551Z,23.57
2018-01-21T18:38:14.152Z,24.53
2018-01-21T18:40:41.700Z,24.10
2018-01-21T18:43:09.310Z,22.53
2018-01-21T18:45:37.055Z,21.50
2018-01-21T18:48:04.587Z,22.87
2018-01-21T18:50:32.155Z,22.90
2018-01-21T18:52:59.698Z,21.87
2018-01-21T18:55:27.243Z,21.90
2018-01-21T18:57:54.778Z,22.13
2018-01-21T19:00:22.345Z,22.00
2018-01-21T19:02:49.888Z,24.33
2018-01-21T19:05:17.542Z,25.13
2018-01-21T19:07:45.371Z,26.07
2018-01-21T19:10:12.875Z,26.37
2018-01-21T19:12:40.419Z,27.23
2018-01-21T19:15:08.059Z,26.83
2018-01-21T19:17:35.578Z,26.63
2018-01-21T19:20:03.168Z,26.80
2018-01-21T19:22:30.707Z,26.43
2018-01-21T19:24:58.300Z,25.73
2018-01-21T19:27:25.876Z,26.27
2018-01-21T19:29:53.727Z,26.30
2018-01-21T19:32:21.369Z,25.57
2018-01-21T19:34:48.953Z,24.73
2018-01-21T19:37:16.647Z,26.77
2018-01-21T19:39:54.823Z,27.13
2018-01-21T19:45:23.394Z,26.13
2018-01-21T19:47:51.023Z,27.07
2018-01-21T19:50:18.699Z,29.00
2018-01-21T19:52:47.157Z,26.60
2018-01-21T19:55:14.660Z,25.00
2018-01-21T19:57:42.453Z,25.90
2018-01-21T20:00:10.956Z,25.63
2018-01-21T20:02:38.561Z,25.67
2018-01-21T20:05:06.156Z,25.93
2018-01-21T20:07:33.751Z,24.53
2018-01-21T20:10:01.299Z,24.73
2018-01-21T20:12:28.827Z,25.90
2018-01-21T20:14:56.305Z,24.50
2018-01-21T20:17:24.075Z,24.40
2018-01-21T20:19:52.255Z,23.77
2018-01-21T20:22:19.801Z,24.83
2018-01-21T20:24:47.288Z,24.00
2018-01-21T20:27:14.819Z,24.40
2018-01-21T20:29:42.435Z,23.83
2018-01-21T20:32:09.999Z,22.03
2018-01-21T20:34:37.564Z,23.23
2018-01-21T20:37:05.161Z,24.23
2018-01-21T20:39:32.758Z,24.87
2018-01-21T20:42:00.252Z,22.63
2018-01-21T20:44:27.786Z,23.27
2018-01-21T20:46:55.307Z,23.10
2018-01-21T20:49:22.818Z,22.57
2018-01-21T20:51:55.857Z,22.63
2018-01-21T20:54:29.674Z,22.90
2018-01-21T20:56:57.285Z,23.77
2018-01-21T20:59:24.805Z,21.30
2018-01-21T21:01:52.336Z,22.37
2018-01-21T21:04:19.871Z,22.00
2018-01-21T21:06:47.759Z,23.30
2018-01-21T21:09:15.240Z,21.17
2018-01-21T21:11:42.763Z,22.77
2018-01-21T21:14:10.331Z,24.30
2018-01-21T21:16:37.975Z,21.90
2018-01-21T21:19:05.496Z,23.33
2018-01-21T21:21:33.130Z,22.30
2018-01-21T21:24:00.655Z,22.77
2018-01-21T21:26:28.151Z,22.10
2018-01-21T21:28:55.736Z,21.90
2018-01-21T21:31:23.264Z,21.87
2018-01-21T21:33:50.803Z,23.97
2018-01-21T21:36:18.315Z,22.30
2018-01-21T21:38:45.817Z,22.63
2018-01-21T21:41:13.311Z,22.30
2018-01-21T21:43:40.800Z,22.27
2018-01-21T21:46:08.287Z,21.63
2018-01-21T21:48:35.836Z,21.43
2018-01-21T21:51:05.076Z,22.57
2018-01-21T21:53:32.594Z,22.60
2018-01-21T21:56:00.173Z,21.93
2018-01-21T21:58:27.810Z,23.50
2018-01-21T22:01:05.901Z,23.03
2018-01-21T22:03:34.265Z,24.13
2018-01-21T22:06:01.787Z,22.60
2018-01-21T22:08:31.111Z,22.87
2018-01-21T22:10:58.765Z,23.30
2018-01-21T22:13:26.512Z,22.30
2018-01-21T22:15:54.449Z,22.87
2018-01-21T22:18:22.036Z,22.40
2018-01-21T22:20:55.357Z,23.40
2018-01-21T22:23:23.442Z,23.73
2018-01-21T22:25:51.194Z,23.63
2018-01-21T22:28:18.839Z,23.20
2018-01-21T22:31:06.857Z,24.17
2018-01-21T22:33:34.848Z,23.63
2018-01-21T22:36:02.551Z,24.57
2018-01-21T22:38:30.377Z,24.63
2018-01-21T22:40:58.044Z,25.60
2018-01-21T22:43:25.525Z,25.03
2018-01-21T22:45:53.086Z,26.30
2018-01-21T22:48:20.725Z,25.57
2018-01-21T22:50:48.244Z,25.40
2018-01-21T22:53:15.775Z,25.17
2018-01-21T22:55:43.367Z,26.47
2018-01-21T22:58:10.912Z,25.07
2018-01-21T23:00:38.510Z,25.10
2018-01-21T23:03:06.348Z,25.93
2018-01-21T23:05:34.058Z,25.80
2018-01-21T23:08:02.061Z,25.70
2018-01-21T23:10:29.686Z,24.60
2018-01-21T23:12:57.323Z,26.07
2018-01-21T23:15:24.911Z,24.53
2018-01-21T23:17:52.399Z,24.80
2018-01-21T23:20:31.885Z,25.33
2018-01-21T23:23:01.147Z,25.70
2018-01-21T23:25:28.750Z,26.27
2018-01-21T23:27:56.230Z,25.90
2018-01-21T23:30:24.238Z,26.60
2018-01-21T23:32:52.271Z,25.37
2018-01-21T23:35:20.093Z,26.00
2018-01-21T23:37:47.844Z,25.17
2018-01-21T23:40:15.312Z,24.63
2018-01-21T23:42:42.790Z,25.67
2018-01-21T23:45:10.257Z,25.73
2018-01-21T23:47:37.772Z,24.63
2018-01-21T23:50:05.267Z,25.17
2018-01-21T23:52:32.796Z,25.03
2018-01-21T23:55:00.326Z,24.80
2018-01-21T23:57:27.799Z,23.87
2018-01-21T23:59:55.311Z,24.40
